Grande-Riviere, Canada
Current Conditions -  °F | °C
As of 7:21 AM on Sunday 25 Jan 2015 (Local Time) from CYGP Reporting Station
Blowing Snow Blowing Snow  
Wind Chill: 15°   Ceiling: 7500
Heat Index: 27°   Visibility: 15mi
Dew Point: 21°   Wind: 15mph
Humidity: 80%   Direction: 280°W
Pressure: 28.83"   Gusts: 22mph
Location:  48.38°N, 64.5°W
Report Text: CYGP 251221Z 28013G19KT 15SM DRSN SCT020 BKN075 M03/M06 A2883 RMK SC3AC4 SLP763
Loading
Personal Weather Stations






























Interactive Weather Map New forecast layout! Learn more

10-Day Weather Forecast

Advertisements
Track Severe Weather on mobile